Time;durP1;ratioP1;P1;durP2;ratioP2;P2;SDS_P1;SDS_P2;PMS_P1;PMS_P2;Temp;Humidity;BMP_temperature;BMP_pressure;BME280_temperature;BME280_humidity;BME280_pressure;Samples;Min_cycle;Max_cycle;Signal;HPM_P1;HPM_P2
2022/06/11 00:00:52;;;;;;;2.33;1.42;;;;;;;18.29;100.00;96906.25;5117669;27;20016;-77
2022/06/11 00:03:18;;;;;;;1.60;1.35;;;;;;;18.26;100.00;96903.88;5095117;28;20410;-80
2022/06/11 00:05:44;;;;;;;1.45;1.35;;;;;;;18.22;100.00;96895.22;5118805;27;20050;-80
2022/06/11 00:08:10;;;;;;;3.58;1.33;;;;;;;18.22;100.00;96886.25;5094140;28;20030;-80
2022/06/11 00:10:36;;;;;;;4.95;1.88;;;;;;;18.21;100.00;96898.91;5113315;27;20019;-80
2022/06/11 00:13:02;;;;;;;3.20;1.92;;;;;;;18.22;100.00;96894.34;5114310;28;20019;-80
2022/06/11 00:15:29;;;;;;;1.00;0.93;;;;;;;18.25;100.00;96892.19;5112491;27;20023;-80
2022/06/11 00:17:56;;;;;;;3.05;1.75;;;;;;;18.23;100.00;96893.38;5124755;27;20034;-80
2022/06/11 00:20:22;;;;;;;5.57;1.80;;;;;;;18.27;100.00;96886.63;5098250;28;20027;-80
2022/06/11 00:22:48;;;;;;;4.68;2.00;;;;;;;18.32;100.00;96893.28;5130257;27;20453;-80
2022/06/11 00:25:14;;;;;;;1.48;1.10;;;;;;;18.36;100.00;96893.81;5114129;28;20038;-80
2022/06/11 00:27:39;;;;;;;3.55;1.33;;;;;;;18.25;100.00;96888.63;5113675;28;20027;-80
2022/06/11 00:30:06;;;;;;;2.33;1.42;;;;;;;18.21;100.00;96892.69;5114133;28;20023;-80
2022/06/11 00:32:32;;;;;;;1.55;1.02;;;;;;;18.18;100.00;96895.72;5094130;28;20023;-80
2022/06/11 00:35:02;;;;;;;1.15;1.05;;;;;;;18.15;100.00;96901.44;5093694;28;20042;-80
2022/06/11 00:37:27;;;;;;;2.05;1.10;;;;;;;18.22;100.00;96905.19;5119522;28;20483;-80
2022/06/11 00:39:53;;;;;;;4.18;1.17;;;;;;;18.14;100.00;96906.00;5111302;28;20179;-80
2022/06/11 00:42:22;;;;;;;2.53;1.20;;;;;;;18.03;100.00;96889.97;5101377;28;20430;-80
2022/06/11 00:44:48;;;;;;;1.13;1.13;;;;;;;18.04;100.00;96902.53;5095346;28;20035;-80
2022/06/11 00:47:22;;;;;;;1.42;1.25;;;;;;;18.04;100.00;96899.81;5098483;28;20024;-80
2022/06/11 00:49:57;;;;;;;3.50;1.70;;;;;;;18.03;100.00;96897.25;5102297;28;20035;-80
2022/06/11 00:52:31;;;;;;;1.05;0.85;;;;;;;18.03;100.00;96908.06;5093634;28;20094;-80
2022/06/11 00:55:05;;;;;;;1.40;0.73;;;;;;;18.01;100.00;96899.28;5110657;28;20035;-80
2022/06/11 00:57:35;;;;;;;1.38;1.15;;;;;;;17.96;100.00;96897.06;5093393;28;20031;-80
2022/06/11 01:00:10;;;;;;;2.78;1.23;;;;;;;17.95;100.00;96900.75;5110239;28;20039;-80
2022/06/11 01:02:37;;;;;;;1.38;1.08;;;;;;;18.01;100.00;96901.97;5119693;28;20027;-80
2022/06/11 01:05:05;;;;;;;2.60;1.67;;;;;;;18.02;100.00;96898.28;5131098;28;20030;-80
2022/06/11 01:07:52;;;;;;;1.08;1.00;;;;;;;18.05;100.00;96903.38;5122479;28;20515;-80
2022/06/11 01:10:25;;;;;;;2.08;1.25;;;;;;;18.04;100.00;96905.22;5125799;27;20027;-80
2022/06/11 01:13:00;;;;;;;1.83;1.00;;;;;;;18.05;100.00;96906.94;5094226;28;20488;-80
2022/06/11 01:15:30;;;;;;;1.23;0.88;;;;;;;18.10;100.00;96903.75;5110288;28;20019;-80
2022/06/11 01:18:18;;;;;;;2.38;1.77;;;;;;;18.12;100.00;96912.56;5130764;27;20031;-80
2022/06/11 01:21:25;;;;;;;2.47;1.08;;;;;;;18.08;100.00;96912.03;5113391;28;20035;-80
2022/06/11 01:24:39;;;;;;;1.23;1.13;;;;;;;18.11;100.00;96917.13;5131144;28;20043;-79
2022/06/11 01:27:32;;;;;;;0.50;0.50;;;;;;;18.05;100.00;96916.91;5111064;28;20082;-81
2022/06/11 01:30:00;;;;;;;2.03;1.17;;;;;;;18.05;100.00;96911.50;5118401;28;20028;-79
2022/06/11 01:32:32;;;;;;;3.45;1.55;;;;;;;18.09;100.00;96918.31;5123632;27;20051;-79
2022/06/11 01:35:12;;;;;;;2.27;1.43;;;;;;;18.12;100.00;96907.16;5124624;27;20031;-80
2022/06/11 01:37:51;;;;;;;1.38;1.25;;;;;;;18.11;100.00;96917.13;5113561;28;20047;-80
2022/06/11 01:40:20;;;;;;;0.77;0.77;;;;;;;18.11;100.00;96917.13;5113634;28;20073;-79
2022/06/11 01:42:53;;;;;;;1.08;0.95;;;;;;;18.11;100.00;96919.84;5122249;27;20016;-79
2022/06/11 01:45:29;;;;;;;0.88;0.88;;;;;;;18.13;100.00;96915.13;5105039;27;20470;-79
2022/06/11 01:47:56;;;;;;;1.17;0.80;;;;;;;18.15;100.00;96917.69;5113170;27;20019;-79
2022/06/11 01:50:25;;;;;;;0.77;0.75;;;;;;;18.15;100.00;96909.56;5104953;28;20137;-79
2022/06/11 01:53:21;;;;;;;1.40;0.65;;;;;;;18.09;100.00;96907.47;5112370;27;20024;-80
2022/06/11 01:56:25;;;;;;;1.65;0.98;;;;;;;18.09;100.00;96902.06;5116720;27;20080;-79
2022/06/11 01:59:09;;;;;;;0.88;0.88;;;;;;;18.06;100.00;96903.22;5055095;28;20032;-80
2022/06/11 02:01:43;;;;;;;2.92;1.25;;;;;;;18.08;100.00;96901.22;5071851;28;20044;-79
2022/06/11 02:04:36;;;;;;;0.70;0.70;;;;;;;18.09;100.00;96904.78;5112460;27;20131;-80
2022/06/11 02:07:08;;;;;;;0.98;0.88;;;;;;;17.95;100.00;96897.19;5107732;28;20023;-80
2022/06/11 02:09:56;;;;;;;0.93;0.93;;;;;;;18.07;100.00;96907.63;5117622;27;20478;-80
2022/06/11 02:12:47;;;;;;;1.33;1.23;;;;;;;18.06;100.00;96910.47;5114941;27;20045;-80
2022/06/11 02:15:32;;;;;;;3.22;1.25;;;;;;;18.02;100.00;96906.41;5097321;27;20121;-80
2022/06/11 02:18:02;;;;;;;1.85;1.20;;;;;;;18.00;100.00;96906.53;5103270;27;20451;-79
2022/06/11 02:20:32;;;;;;;1.17;1.08;;;;;;;17.97;100.00;96908.69;5115996;27;20019;-79
2022/06/11 02:23:07;;;;;;;2.40;1.50;;;;;;;17.99;100.00;96904.88;5133069;27;20035;-79
2022/06/11 02:25:38;;;;;;;4.35;2.38;;;;;;;18.02;100.00;96912.66;5115998;27;20023;-78
2022/06/11 02:28:07;;;;;;;0.77;0.77;;;;;;;18.03;100.00;96902.66;5116855;27;20030;-80
2022/06/11 02:30:33;;;;;;;4.22;0.63;;;;;;;17.99;100.00;96901.28;5099240;27;20050;-80
2022/06/11 02:32:59;;;;;;;2.88;0.98;;;;;;;18.02;100.00;96911.81;5115951;27;20102;-80
2022/06/11 02:35:39;;;;;;;0.63;0.63;;;;;;;18.03;100.00;96916.19;5115642;27;20087;-80
2022/06/11 02:38:08;;;;;;;2.50;0.60;;;;;;;18.00;100.00;96905.69;5124771;27;20051;-80
2022/06/11 02:40:51;;;;;;;1.50;1.00;;;;;;;18.04;100.00;96909.78;5112435;28;20460;-80
2022/06/11 02:43:16;;;;;;;;;;;;;;;17.98;100.00;96911.28;5103908;27;20114;-79
2022/06/11 02:45:42;;;;;;;2.47;1.40;;;;;;;17.98;100.00;96913.13;5108151;27;19969;-80
2022/06/11 02:48:08;;;;;;;1.85;1.20;;;;;;;17.95;100.00;96900.75;5107158;27;20059;-80
2022/06/11 02:50:35;;;;;;;1.80;1.05;;;;;;;17.99;100.00;96912.97;5112012;27;20455;-79
2022/06/11 02:53:02;;;;;;;1.30;1.02;;;;;;;18.02;100.00;96911.81;5110822;27;20023;-79
2022/06/11 02:55:28;;;;;;;1.13;1.05;;;;;;;18.04;100.00;96916.06;5132397;27;20068;-80
2022/06/11 02:57:55;;;;;;;9.00;1.83;;;;;;;18.05;100.00;96917.75;5114918;27;20459;-79
2022/06/11 03:00:27;;;;;;;1.95;1.48;;;;;;;18.07;100.00;96907.63;5115037;27;20106;-80
2022/06/11 03:02:53;;;;;;;1.17;1.08;;;;;;;18.16;100.00;96922.06;5118250;27;20456;-80
2022/06/11 03:05:21;;;;;;;4.18;1.98;;;;;;;18.13;100.00;96928.66;5111781;27;20031;-79
2022/06/11 03:07:48;;;;;;;1.27;0.98;;;;;;;18.13;100.00;96933.22;5125277;27;20486;-80
2022/06/11 03:10:16;;;;;;;1.15;1.05;;;;;;;18.11;100.00;96927.13;5115162;27;20034;-79
2022/06/11 03:12:42;;;;;;;1.23;1.00;;;;;;;18.15;100.00;96925.81;5132434;27;20018;-80
2022/06/11 03:15:08;;;;;;;2.53;1.45;;;;;;;18.15;100.00;96929.31;5099504;28;20088;-80
2022/06/11 03:17:33;;;;;;;1.35;0.85;;;;;;;18.13;100.00;96935.91;5115200;27;20027;-80
2022/06/11 03:20:00;;;;;;;3.03;1.60;;;;;;;18.11;100.00;96932.53;5100799;28;20557;-79
2022/06/11 03:22:26;;;;;;;2.17;0.80;;;;;;;18.13;100.00;96931.34;5094579;28;20477;-79
2022/06/11 03:24:53;;;;;;;0.50;0.50;;;;;;;18.19;100.00;96935.28;5107645;27;20055;-80
2022/06/11 03:27:19;;;;;;;0.70;0.70;;;;;;;18.14;100.00;96932.22;5114848;27;20022;-79
2022/06/11 03:29:45;;;;;;;2.17;1.38;;;;;;;18.15;100.00;96933.91;5086163;28;20023;-78
2022/06/11 03:32:11;;;;;;;1.88;0.98;;;;;;;18.19;100.00;96938.00;5126666;27;20023;-80
2022/06/11 03:34:37;;;;;;;2.05;1.17;;;;;;;18.13;100.00;96935.91;5106022;27;20339;-80
2022/06/11 03:37:03;;;;;;;1.45;1.17;;;;;;;18.19;100.00;96943.41;5114653;27;20042;-80
2022/06/11 03:39:29;;;;;;;1.63;1.23;;;;;;;18.19;100.00;96938.00;5096458;28;20508;-80
2022/06/11 03:41:55;;;;;;;1.85;1.40;;;;;;;18.10;100.00;96938.94;5107441;27;20118;-80
2022/06/11 03:44:21;;;;;;;1.85;1.13;;;;;;;18.12;100.00;96939.66;5131736;27;20039;-81
2022/06/11 03:46:47;;;;;;;0.65;0.65;;;;;;;18.07;100.00;96931.97;5093961;28;20411;-80
2022/06/11 03:49:13;;;;;;;1.83;1.10;;;;;;;18.10;100.00;96931.66;5102588;28;20091;-80
2022/06/11 03:51:39;;;;;;;1.88;1.25;;;;;;;18.14;100.00;96932.22;5093994;28;20122;-80
2022/06/11 03:54:05;;;;;;;5.90;0.90;;;;;;;18.11;100.00;96932.53;5125672;27;20107;-81
2022/06/11 03:56:31;;;;;;;3.33;1.27;;;;;;;18.11;100.00;96930.66;5113864;27;20035;-80
2022/06/11 03:58:57;;;;;;;2.53;1.50;;;;;;;18.14;100.00;96929.50;5109999;28;20164;-80
2022/06/11 04:01:23;;;;;;;2.72;1.30;;;;;;;18.17;100.00;96929.19;5093513;28;20054;-80
2022/06/11 04:04:00;;;;;;;1.23;1.00;;;;;;;18.13;100.00;96933.22;5094188;28;20578;-80
2022/06/11 04:06:45;;;;;;;2.05;1.60;;;;;;;18.18;100.00;96934.44;5128109;27;20020;-80
2022/06/11 04:09:15;;;;;;;3.13;1.58;;;;;;;18.21;100.00;96938.72;5093452;28;20019;-80
2022/06/11 04:11:40;;;;;;;1.35;1.25;;;;;;;18.29;100.00;96941.47;5110766;28;20030;-79
2022/06/11 04:14:07;;;;;;;1.92;0.90;;;;;;;18.35;100.00;96947.09;5110939;28;20410;-80
2022/06/11 04:16:41;;;;;;;1.65;1.48;;;;;;;18.38;100.00;96948.66;5101927;28;20027;-80
2022/06/11 04:19:09;;;;;;;6.32;2.38;;;;;;;18.44;100.00;96950.72;5107519;27;20019;-81
2022/06/11 04:21:36;;;;;;;2.50;1.45;;;;;;;18.45;100.00;96952.44;5114290;28;20047;-80
2022/06/11 04:24:03;;;;;;;2.22;1.52;;;;;;;18.48;100.00;96946.69;5114005;28;20023;-80
2022/06/11 04:26:33;;;;;;;4.57;2.03;;;;;;;18.63;100.00;96953.25;5114026;27;20029;-80
2022/06/11 04:29:00;;;;;;;1.30;1.02;;;;;;;18.70;100.00;96961.59;5101976;28;20132;-81
2022/06/11 04:31:27;;;;;;;1.83;1.33;;;;;;;18.77;100.00;96960.78;5101306;28;20471;-81
2022/06/11 04:33:53;;;;;;;1.85;1.17;;;;;;;18.74;100.00;96958.41;5132214;27;20098;-80
2022/06/11 04:36:21;;;;;;;1.17;1.08;;;;;;;18.77;100.00;96971.63;5113750;28;20134;-81
2022/06/11 04:38:47;;;;;;;1.60;1.50;;;;;;;18.75;100.00;96956.56;5095311;28;20065;-81
2022/06/11 04:41:13;;;;;;;1.17;1.08;;;;;;;18.78;100.00;96969.78;5093338;28;20031;-80
2022/06/11 04:43:39;;;;;;;2.22;1.38;;;;;;;18.78;100.00;96967.94;5095861;28;20036;-81
2022/06/11 04:46:05;;;;;;;4.95;2.25;;;;;;;18.81;100.00;96970.31;5128682;27;20067;-81
2022/06/11 04:48:31;;;;;;;1.80;1.55;;;;;;;18.76;100.00;96971.81;5100858;28;20031;-80
2022/06/11 04:50:56;;;;;;;2.60;1.02;;;;;;;18.77;100.00;96982.47;5093446;28;20038;-82
2022/06/11 04:53:22;;;;;;;0.77;0.77;;;;;;;18.81;100.00;96983.00;5096333;28;21185;-80
2022/06/11 04:55:48;;;;;;;0.57;0.57;;;;;;;18.84;100.00;96985.41;5093296;28;20507;-79
2022/06/11 04:58:14;;;;;;;4.75;1.60;;;;;;;18.80;100.00;96989.44;5129367;27;20023;-79
2022/06/11 05:00:39;;;;;;;2.20;1.55;;;;;;;18.79;100.00;96990.47;5099719;28;20023;-79
2022/06/11 05:03:05;;;;;;;2.55;1.63;;;;;;;18.87;100.00;96996.78;5105257;28;20027;-81
2022/06/11 05:05:31;;;;;;;1.67;1.40;;;;;;;18.90;100.00;96996.47;5114023;28;20509;-80
2022/06/11 05:07:58;;;;;;;2.25;1.10;;;;;;;18.95;100.00;96988.69;5113760;28;20053;-83
2022/06/11 05:10:26;;;;;;;4.70;2.08;;;;;;;19.07;100.00;97001.97;5117392;27;20443;-83
2022/06/11 05:12:51;;;;;;;1.42;1.15;;;;;;;19.07;100.00;96994.69;5134667;27;20046;-83
2022/06/11 05:15:17;;;;;;;0.60;0.60;;;;;;;19.06;100.00;97000.28;5108762;27;20440;-83
2022/06/11 05:17:43;;;;;;;1.95;1.63;;;;;;;19.12;100.00;97005.91;5112131;27;20054;-83
2022/06/11 05:20:09;;;;;;;2.83;0.95;;;;;;;19.23;100.00;97012.88;5111903;27;20027;-83
2022/06/11 05:22:36;;;;;;;4.13;1.95;;;;;;;19.25;100.00;97008.19;5117598;27;20034;-83
2022/06/11 05:25:03;;;;;;;6.53;1.20;;;;;;;19.16;100.00;97017.28;5109482;27;20051;-83
2022/06/11 05:27:29;;;;;;;2.40;1.35;;;;;;;19.18;100.00;97015.25;5117128;27;20015;-82
2022/06/11 05:30:03;;;;;;;2.58;1.45;;;;;;;19.22;100.00;97027.47;5107821;27;20073;-82
2022/06/11 05:32:32;;;;;;;2.42;1.48;;;;;;;19.27;100.00;97015.13;5134802;27;20032;-86
2022/06/11 05:34:59;;;;;;;9.90;1.40;;;;;;;19.39;100.00;97024.72;5111009;28;20023;-86
2022/06/11 05:37:25;;;;;;;1.30;0.98;;;;;;;19.53;100.00;97027.84;5113142;27;20429;-86
2022/06/11 05:39:50;;;;;;;0.93;0.82;;;;;;;19.67;100.00;97021.78;5103335;28;20119;-86
2022/06/11 05:42:18;;;;;;;1.10;1.10;;;;;;;19.84;100.00;97021.66;5096968;28;20027;-85
2022/06/11 05:44:44;;;;;;;4.20;1.48;;;;;;;19.91;100.00;97020.00;5113373;27;20019;-85
2022/06/11 05:47:12;;;;;;;1.25;1.15;;;;;;;20.10;100.00;97015.28;5108006;27;20031;-85
2022/06/11 05:49:41;;;;;;;1.67;1.58;;;;;;;20.21;100.00;97015.78;5117424;27;20038;-85
2022/06/11 05:52:12;;;;;;;3.78;2.00;;;;;;;20.33;100.00;97027.25;5106372;28;20020;-85
2022/06/11 05:54:40;;;;;;;1.90;1.23;;;;;;;20.50;100.00;97027.06;5125291;27;20031;-86
2022/06/11 05:57:11;;;;;;;10.13;1.80;;;;;;;20.50;100.00;97018.06;5115535;27;20023;-86
2022/06/11 05:59:43;;;;;;;1.00;1.00;;;;;;;20.58;100.00;97023.50;5105437;28;20411;-86
2022/06/11 06:02:10;;;;;;;2.63;1.75;;;;;;;20.41;100.00;97014.50;5104806;27;20402;-86
2022/06/11 06:04:37;;;;;;;0.57;0.57;;;;;;;20.37;100.00;97036.72;5105320;28;20479;-85
2022/06/11 06:07:04;;;;;;;1.20;1.10;;;;;;;20.42;100.00;97020.78;5115053;27;20007;-86
2022/06/11 06:09:30;;;;;;;1.33;1.05;;;;;;;20.42;100.00;97029.81;5112667;27;20462;-86
2022/06/11 06:11:56;;;;;;;0.98;0.68;;;;;;;20.21;100.00;97032.09;5099407;28;20072;-84
2022/06/11 06:14:21;;;;;;;0.85;0.80;;;;;;;20.21;100.00;97034.81;5113352;27;20387;-84
2022/06/11 06:16:47;;;;;;;2.00;1.63;;;;;;;20.31;100.00;97034.69;5129655;27;20019;-85
2022/06/11 06:19:12;;;;;;;6.80;1.23;;;;;;;20.28;100.00;97026.88;5133862;27;20486;-84
2022/06/11 06:21:38;;;;;;;1.45;1.33;;;;;;;20.32;100.00;97025.53;5113508;27;20035;-86
2022/06/11 06:24:05;;;;;;;2.95;1.35;;;;;;;20.28;100.00;97033.16;5095680;28;20532;-86
2022/06/11 06:26:31;;;;;;;0.70;0.70;;;;;;;20.09;100.00;97038.03;5113311;27;20123;-86
2022/06/11 06:28:57;;;;;;;2.25;1.48;;;;;;;20.23;100.00;97032.78;5099536;28;20027;-86
2022/06/11 06:31:22;;;;;;;1.45;1.27;;;;;;;20.25;100.00;97038.03;5108019;27;20031;-86
2022/06/11 06:33:48;;;;;;;2.28;1.00;;;;;;;20.21;100.00;97017.69;5104361;28;20035;-86
2022/06/11 06:36:14;;;;;;;4.38;0.98;;;;;;;20.22;100.00;97032.94;5112241;27;20051;-86
2022/06/11 06:38:41;;;;;;;4.47;1.30;;;;;;;20.15;100.00;97037.38;5102685;28;20084;-86
2022/06/11 06:41:07;;;;;;;1.50;1.13;;;;;;;20.29;100.00;97044.88;5114181;27;20505;-86
2022/06/11 06:43:33;;;;;;;2.20;1.88;;;;;;;20.24;100.00;97037.19;5133497;27;20022;-86
2022/06/11 06:46:00;;;;;;;1.52;1.10;;;;;;;20.39;100.00;97053.75;5116459;27;20019;-86
2022/06/11 06:48:26;;;;;;;2.47;1.83;;;;;;;20.45;100.00;97051.19;5107462;28;20030;-86
2022/06/11 06:50:53;;;;;;;1.75;1.02;;;;;;;20.38;100.00;97043.88;5096148;28;20139;-87
2022/06/11 06:53:19;;;;;;;5.30;1.30;;;;;;;20.29;100.00;97045.75;5123113;27;20030;-86
2022/06/11 06:55:44;;;;;;;1.98;1.33;;;;;;;20.39;100.00;97053.75;5127733;27;20444;-87
2022/06/11 06:58:10;;;;;;;1.70;1.30;;;;;;;20.67;100.00;97054.28;5116473;27;20026;-86
2022/06/11 07:00:36;;;;;;;3.25;1.30;;;;;;;20.91;100.00;97055.13;5116241;27;20379;-86
2022/06/11 07:03:02;;;;;;;0.80;0.63;;;;;;;21.05;100.00;97054.41;5116309;27;20019;-86
2022/06/11 07:05:28;;;;;;;1.52;0.63;;;;;;;21.31;100.00;97053.38;5103739;27;20470;-86
2022/06/11 07:07:53;;;;;;;1.10;0.77;;;;;;;21.28;100.00;97051.84;5104499;28;20161;-86
2022/06/11 07:10:21;;;;;;;0.90;0.80;;;;;;;21.52;100.00;97059.09;5114453;27;20362;-86
2022/06/11 07:12:47;;;;;;;0.68;0.50;;;;;;;21.30;100.00;97057.09;5112324;28;20486;-85
2022/06/11 07:15:13;;;;;;;3.83;1.38;;;;;;;21.42;100.00;97055.72;5113877;27;20088;-86
2022/06/11 07:17:49;;;;;;;0.50;0.50;;;;;;;21.86;100.00;97075.16;5121911;27;20074;-86
2022/06/11 07:20:26;;;;;;;1.05;0.95;;;;;;;22.22;100.00;97075.50;5106345;27;20026;-87
2022/06/11 07:23:01;;;;;;;0.60;0.60;;;;;;;22.45;100.00;97071.81;5103301;28;20398;-85
2022/06/11 07:25:27;;;;;;;8.55;0.90;;;;;;;22.43;100.00;97067.53;5129613;27;20082;-85
2022/06/11 07:27:59;;;;;;;0.90;0.90;;;;;;;22.66;100.00;97065.72;5097406;28;20114;-85
2022/06/11 07:30:26;;;;;;;1.58;1.17;;;;;;;22.93;100.00;97070.59;5100110;27;20448;-85
2022/06/11 07:32:56;;;;;;;2.92;0.93;;;;;;;22.97;100.00;97061.03;5126907;27;20015;-86
2022/06/11 07:35:23;;;;;;;0.82;0.82;;;;;;;22.95;100.00;97062.25;5115415;27;20034;-86
2022/06/11 07:37:49;;;;;;;1.10;1.00;;;;;;;23.44;100.00;97062.66;5088428;28;20040;-85
2022/06/11 07:40:18;;;;;;;1.10;0.77;;;;;;;24.62;100.00;97065.06;5102570;27;20027;-85
2022/06/11 07:42:44;;;;;;;4.13;1.20;;;;;;;25.85;85.67;97073.69;5116121;27;20031;-88
2022/06/11 07:45:10;;;;;;;0.32;0.30;;;;;;;26.37;80.00;97076.72;5101824;28;20106;-85
2022/06/11 07:47:53;;;;;;;0.82;0.75;;;;;;;26.33;78.56;97077.38;5097289;28;20031;-85
2022/06/11 07:50:24;;;;;;;0.80;0.55;;;;;;;26.52;80.46;97081.22;5113739;27;20146;-86
2022/06/11 07:52:50;;;;;;;0.55;0.55;;;;;;;26.36;76.94;97074.22;5108315;27;20163;-84
2022/06/11 07:55:16;;;;;;;0.95;0.57;;;;;;;25.94;80.22;97077.97;5109015;28;20402;-86
2022/06/11 07:57:42;;;;;;;0.55;0.55;;;;;;;25.84;79.53;97064.63;5104762;27;20023;-85
2022/06/11 08:00:12;;;;;;;0.50;0.50;;;;;;;25.48;83.21;97065.84;5126157;27;20022;-85
2022/06/11 08:02:38;;;;;;;0.50;0.50;;;;;;;25.68;84.47;97066.88;5114483;28;20043;-86
2022/06/11 08:05:05;;;;;;;1.75;0.60;;;;;;;25.34;82.58;97060.28;5110345;27;20011;-87
2022/06/11 08:07:30;;;;;;;2.88;0.68;;;;;;;24.69;87.94;97057.78;5134184;27;20018;-85
2022/06/11 08:09:58;;;;;;;0.20;0.20;;;;;;;24.57;90.45;97061.22;5131870;27;20023;-85
2022/06/11 08:12:25;;;;;;;0.70;0.70;;;;;;;23.81;92.90;97056.25;5110365;28;20023;-85
2022/06/11 08:14:50;;;;;;;0.40;0.35;;;;;;;23.54;97.78;97057.75;5109819;28;20019;-85
2022/06/11 08:17:16;;;;;;;0.47;0.47;;;;;;;23.30;95.97;97047.91;5111907;27;20031;-86
2022/06/11 08:19:42;;;;;;;0.75;0.75;;;;;;;23.33;100.00;97044.81;5115030;27;20451;-85
2022/06/11 08:22:07;;;;;;;0.95;0.88;;;;;;;23.11;100.00;97049.28;5115510;27;20105;-84
2022/06/11 08:24:33;;;;;;;0.55;0.47;;;;;;;22.87;100.00;97046.78;5115049;27;20024;-85
2022/06/11 08:26:58;;;;;;;0.17;0.17;;;;;;;22.68;100.00;97039.09;5089619;28;20133;-86
2022/06/11 08:29:24;;;;;;;0.70;0.68;;;;;;;22.60;100.00;97041.88;5112303;28;20027;-86
2022/06/11 08:31:49;;;;;;;0.35;0.35;;;;;;;22.58;100.00;97033.84;5105743;28;20085;-87
2022/06/11 08:34:15;;;;;;;0.35;0.35;;;;;;;22.49;100.00;97039.53;5112950;28;20026;-87
2022/06/11 08:36:40;;;;;;;1.42;0.70;;;;;;;22.43;100.00;97040.28;5102988;28;20046;-86
2022/06/11 08:39:06;;;;;;;0.20;0.20;;;;;;;22.48;100.00;97038.72;5119552;28;20441;-86
2022/06/11 08:41:35;;;;;;;0.57;0.57;;;;;;;22.36;100.00;97050.22;5113942;28;20403;-86
2022/06/11 08:44:11;;;;;;;0.55;0.52;;;;;;;22.24;100.00;97052.47;5104522;27;20029;-86
2022/06/11 08:46:40;;;;;;;0.50;0.50;;;;;;;22.30;100.00;97053.66;5136303;27;20080;-84
2022/06/11 08:49:11;;;;;;;0.32;0.32;;;;;;;22.38;100.00;97049.00;5118520;27;20062;-84
2022/06/11 08:51:44;;;;;;;0.38;0.38;;;;;;;22.44;100.00;97051.00;5130004;27;20478;-85
2022/06/11 08:54:13;;;;;;;2.35;1.00;;;;;;;22.33;100.00;97050.59;5119273;27;20110;-87
2022/06/11 08:56:42;;;;;;;0.43;0.30;;;;;;;22.28;100.00;97048.38;5110812;28;20035;-87
2022/06/11 08:59:20;;;;;;;0.45;0.45;;;;;;;21.94;100.00;97062.38;5122731;27;20549;-87
2022/06/11 09:01:52;;;;;;;1.27;0.88;;;;;;;21.72;100.00;97057.66;5136565;27;20023;-86
2022/06/11 09:04:47;;;;;;;0.45;0.45;;;;;;;21.42;100.00;97053.84;5122735;27;20085;-86
2022/06/11 09:07:42;;;;;;;0.25;0.25;;;;;;;20.82;100.00;97050.69;5115690;28;20036;-87
2022/06/11 09:10:25;;;;;;;0.75;0.65;;;;;;;20.54;100.00;97062.94;5115325;28;20023;-87
2022/06/11 09:13:02;;;;;;;0.98;0.60;;;;;;;20.41;100.00;97076.16;5107026;28;20031;-85
2022/06/11 09:15:51;;;;;;;2.45;1.42;;;;;;;20.08;100.00;97075.19;5111913;27;20027;-87
2022/06/11 09:18:22;;;;;;;3.15;2.05;;;;;;;19.91;100.00;97090.56;5120935;27;20049;-86
2022/06/11 09:21:12;;;;;;;1.67;1.50;;;;;;;19.80;100.00;97096.31;5127062;27;20051;-86
2022/06/11 09:23:51;;;;;;;0.95;0.60;;;;;;;19.75;100.00;97095.94;5127099;27;20052;-86
2022/06/11 09:26:45;;;;;;;0.20;0.20;;;;;;;19.64;100.00;97098.09;5118542;27;20051;-85
2022/06/11 09:29:13;;;;;;;1.90;1.27;;;;;;;19.61;100.00;97104.69;5114238;28;20034;-85
2022/06/11 09:31:48;;;;;;;1.08;0.77;;;;;;;19.63;100.00;97102.66;5098318;28;20522;-84
2022/06/11 09:34:18;;;;;;;0.50;0.50;;;;;;;19.65;100.00;97106.09;5106634;28;20102;-85
2022/06/11 09:37:12;;;;;;;1.63;1.23;;;;;;;19.63;100.00;97107.22;5115829;28;20097;-85
2022/06/11 09:39:46;;;;;;;11.10;2.08;;;;;;;19.71;100.00;97108.16;5091241;28;20047;-85
2022/06/11 09:42:31;;;;;;;0.63;0.50;;;;;;;19.89;100.00;97114.34;5100814;27;20509;-85
2022/06/11 09:45:03;;;;;;;1.70;1.33;;;;;;;20.21;100.00;97110.03;5118835;27;20037;-85
2022/06/11 09:47:47;;;;;;;1.35;0.73;;;;;;;20.53;100.00;97104.69;5123839;27;20032;-85
2022/06/11 09:50:27;;;;;;;0.88;0.63;;;;;;;20.76;100.00;97103.03;5135234;27;20046;-84
2022/06/11 09:53:16;;;;;;;0.20;0.20;;;;;;;21.13;100.00;97107.13;5104181;28;20482;-85
2022/06/11 09:55:48;;;;;;;0.32;0.10;;;;;;;21.43;100.00;97115.44;5111524;27;20023;-86
2022/06/11 09:58:28;;;;;;;0.00;0.00;;;;;;;21.63;100.00;97113.16;5126095;27;20028;-84
2022/06/11 10:00:58;;;;;;;0.13;0.13;;;;;;;21.74;100.00;97112.81;5132009;27;20031;-86
2022/06/11 10:03:36;;;;;;;0.50;0.50;;;;;;;21.82;100.00;97104.59;5116652;27;20566;-86
2022/06/11 10:06:53;;;;;;;0.63;0.60;;;;;;;21.95;100.00;97102.22;5124297;27;20023;-85
2022/06/11 10:09:23;;;;;;;0.30;0.20;;;;;;;21.78;100.00;97097.78;5039689;28;20036;-85
2022/06/11 10:11:57;;;;;;;0.38;0.38;;;;;;;21.89;100.00;97107.50;5104384;28;20045;-83
2022/06/11 10:14:38;;;;;;;0.40;0.32;;;;;;;21.90;100.00;97103.78;5114528;28;20399;-83
2022/06/11 10:17:29;;;;;;;0.43;0.40;;;;;;;21.89;100.00;97100.19;5123702;27;20027;-85
2022/06/11 10:20:00;;;;;;;0.20;0.20;;;;;;;21.69;100.00;97098.84;5118210;27;20095;-85
2022/06/11 10:22:30;;;;;;;0.68;0.68;;;;;;;21.67;100.00;97089.16;5134999;27;20079;-85
2022/06/11 10:25:32;;;;;;;0.68;0.47;;;;;;;21.52;100.00;97094.50;5110282;27;20043;-85
2022/06/11 10:28:36;;;;;;;0.40;0.40;;;;;;;21.46;100.00;97095.19;5134770;27;20033;-86
2022/06/11 10:31:09;;;;;;;2.20;0.43;;;;;;;21.56;100.00;97091.22;5093071;27;20027;-83
2022/06/11 10:33:38;;;;;;;0.50;0.50;;;;;;;21.75;100.00;97084.53;5112555;28;20023;-83
2022/06/11 10:36:21;;;;;;;0.45;0.45;;;;;;;21.99;100.00;97092.66;5121119;27;20027;-83
2022/06/11 10:39:09;;;;;;;;;;;;;;;22.59;100.00;97083.78;5112302;27;20027;-80
2022/06/11 10:41:41;;;;;;;0.55;0.55;;;;;;;24.36;100.00;97083.06;5112045;27;19911;-84
2022/06/11 10:44:28;;;;;;;0.30;0.30;;;;;;;26.65;93.88;97090.34;5104913;27;20023;-83
2022/06/11 10:46:54;;;;;;;0.40;0.35;;;;;;;29.20;74.24;97096.47;5129207;27;20482;-84
2022/06/11 10:49:22;;;;;;;0.52;0.47;;;;;;;29.61;67.63;97092.34;5121231;27;20016;-84
2022/06/11 10:52:15;;;;;;;0.47;0.43;;;;;;;30.53;60.52;97087.59;5107114;28;20034;-84
2022/06/11 10:54:40;;;;;;;0.38;0.38;;;;;;;31.03;59.63;97079.09;5108245;27;20506;-84
2022/06/11 10:57:16;;;;;;;0.70;0.65;;;;;;;30.84;60.97;97096.75;5098690;27;20081;-84
2022/06/11 10:59:47;;;;;;;1.77;0.30;;;;;;;29.87;60.86;97089.41;5089224;28;20031;-84
2022/06/11 11:02:36;;;;;;;0.50;0.50;;;;;;;29.03;60.61;97070.53;5098335;27;20440;-84
2022/06/11 11:05:07;;;;;;;0.30;0.30;;;;;;;27.96;63.58;97086.84;5106889;27;20027;-83
2022/06/11 11:07:54;;;;;;;1.83;0.40;;;;;;;27.26;73.22;97090.25;5095738;28;20038;-83
2022/06/11 11:10:35;;;;;;;6.72;1.05;;;;;;;26.21;76.56;97085.31;5122003;27;20026;-84
2022/06/11 11:13:04;;;;;;;0.40;0.40;;;;;;;25.52;86.58;97078.97;5125594;27;20055;-84
2022/06/11 11:15:39;;;;;;;0.70;0.52;;;;;;;25.22;90.50;97086.50;5096424;27;20083;-82
2022/06/11 11:18:36;;;;;;;1.38;0.55;;;;;;;24.86;84.83;97072.06;5120711;27;20022;-81
2022/06/11 11:21:02;;;;;;;0.60;0.57;;;;;;;24.25;90.26;97068.84;5073899;27;20506;-82
2022/06/11 11:23:39;;;;;;;0.77;0.77;;;;;;;23.83;95.11;97073.28;5123188;27;20099;-83
2022/06/11 11:26:11;;;;;;;1.73;0.40;;;;;;;23.47;100.00;97073.19;5109141;27;20019;-82
2022/06/11 11:29:00;;;;;;;1.67;0.73;;;;;;;23.28;100.00;97079.16;5101102;27;20031;-82
2022/06/11 11:31:28;;;;;;;0.52;0.50;;;;;;;23.12;100.00;97075.56;5116887;27;20118;-80
2022/06/11 11:34:05;;;;;;;0.10;0.10;;;;;;;23.16;100.00;97071.41;5109298;28;20072;-80
2022/06/11 11:36:33;;;;;;;0.47;0.47;;;;;;;23.59;94.78;97066.25;5123972;27;20459;-87
2022/06/11 11:39:15;;;;;;;0.38;0.30;;;;;;;24.32;93.37;97070.81;5108309;28;20028;-87
2022/06/11 11:42:13;;;;;;;0.30;0.30;;;;;;;24.65;91.73;97074.75;5112149;28;20035;-89
2022/06/11 11:44:51;;;;;;;0.40;0.40;;;;;;;24.65;89.01;97058.34;5095987;27;20096;-89
2022/06/11 11:47:29;;;;;;;0.80;0.52;;;;;;;24.69;85.66;97065.13;5107529;28;20103;-86